Time;durP1;ratioP1;P1;durP2;ratioP2;P2;SDS_P1;SDS_P2;PMS_P1;PMS_P2;Temp;Humidity;BMP_temperature;BMP_pressure;BME280_temperature;BME280_humidity;BME280_pressure;Samples;Min_cycle;Max_cycle;Signal;HPM_P1;HPM_P2
2022/09/05 00:01:55;;;;;;;6.87;3.93;;;21.50;99.90;;;;;;5026059;28;20863;-86
2022/09/05 00:05:15;;;;;;;6.43;3.80;;;21.40;99.90;;;;;;5015433;28;20779;-86
2022/09/05 00:08:02;;;;;;;7.67;3.50;;;21.40;99.90;;;;;;4997970;28;20446;-86
2022/09/05 00:10:58;;;;;;;4.53;3.60;;;21.40;99.90;;;;;;5016350;28;20784;-86
2022/09/05 00:13:37;;;;;;;6.67;3.30;;;21.40;99.90;;;;;;5015234;28;20940;-87
2022/09/05 00:16:55;;;;;;;3.77;3.37;;;21.40;99.90;;;;;;5015167;28;20421;-86
2022/09/05 00:19:35;;;;;;;4.93;3.43;;;21.40;99.90;;;;;;5015218;28;20432;-86
2022/09/05 00:22:32;;;;;;;4.90;3.47;;;21.30;99.90;;;;;;5015297;28;20422;-86
2022/09/05 00:25:26;;;;;;;4.50;3.90;;;21.30;99.90;;;;;;5015360;28;20425;-87
2022/09/05 00:28:18;;;;;;;5.07;3.40;;;21.20;99.90;;;;;;5015336;28;20434;-86
2022/09/05 00:31:16;;;;;;;5.03;3.83;;;21.10;99.90;;;;;;5016267;28;20408;-87
2022/09/05 00:34:00;;;;;;;4.90;3.33;;;21.00;99.90;;;;;;5016070;28;20459;-87
2022/09/05 00:36:43;;;;;;;4.47;3.50;;;20.90;99.90;;;;;;5014449;28;20424;-86
2022/09/05 00:39:20;;;;;;;7.17;3.60;;;20.80;99.90;;;;;;5015295;28;20435;-87
2022/09/05 00:41:48;;;;;;;6.57;3.90;;;20.80;99.90;;;;;;5018028;28;20433;-87
2022/09/05 00:44:25;;;;;;;7.70;3.47;;;20.80;99.90;;;;;;5017528;28;20527;-86
2022/09/05 00:47:12;;;;;;;7.90;4.03;;;20.80;99.90;;;;;;5015629;28;20747;-87
2022/09/05 00:49:58;;;;;;;5.10;3.67;;;20.80;99.90;;;;;;5014463;28;20436;-87
2022/09/05 00:52:35;;;;;;;6.20;4.20;;;20.80;99.90;;;;;;5014596;28;20974;-87
2022/09/05 00:55:37;;;;;;;5.00;3.73;;;20.80;99.90;;;;;;5014514;28;20926;-86
2022/09/05 00:58:18;;;;;;;5.20;3.77;;;20.70;99.90;;;;;;5014355;28;20412;-86
2022/09/05 01:00:57;;;;;;;4.73;3.47;;;20.60;99.90;;;;;;5015563;28;20758;-86
2022/09/05 01:04:06;;;;;;;4.57;3.60;;;20.60;99.90;;;;;;5015243;28;20432;-87
2022/09/05 01:07:05;;;;;;;7.23;3.70;;;20.60;99.90;;;;;;5014318;28;20857;-86
2022/09/05 01:09:44;;;;;;;5.27;3.07;;;20.60;99.90;;;;;;5015379;28;20487;-86
2022/09/05 01:12:16;;;;;;;6.43;4.20;;;20.50;99.90;;;;;;5015175;28;20470;-87
2022/09/05 01:15:19;;;;;;;4.93;4.10;;;20.60;99.90;;;;;;5014986;28;20417;-86
2022/09/05 01:18:01;;;;;;;5.60;3.50;;;20.50;99.90;;;;;;4996438;28;20416;-86
2022/09/05 01:20:38;;;;;;;5.50;3.90;;;20.50;99.90;;;;;;5011622;28;20504;-87
2022/09/05 01:23:38;;;;;;;5.37;4.00;;;20.50;99.90;;;;;;5013878;28;20978;-86
2022/09/05 01:26:34;;;;;;;9.10;4.20;;;20.40;99.90;;;;;;5013479;28;20500;-87
2022/09/05 01:29:35;;;;;;;12.93;4.90;;;20.40;99.90;;;;;;5013992;28;20417;-87
2022/09/05 01:32:26;;;;;;;9.00;4.83;;;20.30;99.90;;;;;;5004868;28;20481;-86
2022/09/05 01:35:26;;;;;;;6.43;4.70;;;20.20;99.90;;;;;;5013132;28;20440;-86
2022/09/05 01:37:55;;;;;;;5.63;4.37;;;20.10;99.90;;;;;;5014720;28;20417;-86
2022/09/05 01:40:51;;;;;;;8.30;5.53;;;20.10;99.90;;;;;;5013431;28;20425;-86
2022/09/05 01:43:48;;;;;;;6.47;5.13;;;20.00;1.00;;;;;;5014018;28;20448;-87
2022/09/05 01:46:25;;;;;;;5.73;4.97;;;19.80;1.00;;;;;;5015047;28;20421;-87
2022/09/05 01:49:07;;;;;;;8.50;5.43;;;19.70;1.00;;;;;;5013590;28;20455;-86
2022/09/05 01:51:51;;;;;;;6.33;4.70;;;19.70;1.00;;;;;;5013418;28;20499;-87
2022/09/05 01:54:43;;;;;;;8.87;4.57;;;19.70;1.00;;;;;;5013385;28;20963;-86
2022/09/05 01:57:17;;;;;;;7.63;4.20;;;19.80;1.00;;;;;;5009316;28;20510;-87
2022/09/05 02:00:06;;;;;;;6.20;4.77;;;19.80;1.00;;;;;;5014140;28;20417;-87
2022/09/05 02:02:53;;;;;;;7.10;5.20;;;19.80;1.00;;;;;;5013748;28;20586;-86
2022/09/05 02:05:58;;;;;;;5.13;4.37;;;19.70;1.00;;;;;;5012981;28;20427;-86
2022/09/05 02:08:45;;;;;;;8.30;4.57;;;19.80;1.00;;;;;;5013019;28;20514;-86
2022/09/05 02:11:12;;;;;;;8.53;4.47;;;19.70;1.00;;;;;;5014309;28;20462;-87
2022/09/05 02:13:56;;;;;;;5.23;4.73;;;19.70;1.00;;;;;;5013547;28;20942;-86
2022/09/05 02:16:42;;;;;;;8.17;4.77;;;19.50;64.50;;;;;;5014066;28;20803;-87
2022/09/05 02:19:39;;;;;;;5.93;4.97;;;19.50;97.10;;;;;;5013920;28;20517;-86
2022/09/05 02:22:13;;;;;;;10.97;4.90;;;19.50;88.00;;;;;;5014302;28;20859;-87
2022/09/05 02:24:46;;;;;;;5.00;4.33;;;19.50;52.60;;;;;;5014297;28;20803;-86
2022/09/05 02:27:22;;;;;;;7.10;5.03;;;19.60;39.60;;;;;;5013042;28;20443;-86
2022/09/05 02:30:09;;;;;;;6.60;4.90;;;19.50;35.90;;;;;;5012601;28;20437;-86
2022/09/05 02:32:35;;;;;;;6.30;4.57;;;19.50;99.90;;;;;;5012349;28;20475;-86
2022/09/05 02:35:16;;;;;;;5.80;4.27;;;19.30;99.90;;;;;;5013898;28;20425;-86
2022/09/05 02:37:46;;;;;;;5.70;4.33;;;19.20;99.90;;;;;;5013672;28;20265;-87
2022/09/05 02:40:12;;;;;;;5.13;4.33;;;19.20;99.90;;;;;;5012826;28;20424;-87
2022/09/05 02:43:00;;;;;;;7.97;4.33;;;19.20;99.90;;;;;;5013553;28;20853;-87
2022/09/05 02:45:40;;;;;;;5.83;4.57;;;19.30;99.90;;;;;;5012540;28;20994;-86
2022/09/05 02:48:18;;;;;;;7.70;5.13;;;19.20;99.90;;;;;;5013503;28;20387;-86
2022/09/05 02:50:59;;;;;;;12.00;4.60;;;19.30;99.90;;;;;;5012011;28;20436;-86
2022/09/05 02:53:26;;;;;;;4.50;4.10;;;19.30;99.90;;;;;;5012296;28;20476;-86
2022/09/05 02:56:15;;;;;;;5.77;4.43;;;19.30;99.90;;;;;;5011905;28;20418;-86
2022/09/05 02:58:41;;;;;;;9.77;4.40;;;19.30;99.90;;;;;;5012710;28;20438;-87
2022/09/05 03:01:34;;;;;;;5.40;3.90;;;19.30;99.90;;;;;;5012814;28;20989;-89
2022/09/05 03:04:09;;;;;;;5.60;4.57;;;19.30;99.90;;;;;;5009633;28;20586;-87
2022/09/05 03:07:01;;;;;;;7.57;5.00;;;19.20;99.90;;;;;;5012127;28;20511;-86
2022/09/05 03:10:02;;;;;;;5.70;5.10;;;19.20;99.90;;;;;;5012568;28;20503;-86
2022/09/05 03:12:58;;;;;;;8.07;4.90;;;19.10;99.90;;;;;;5011931;28;20467;-86
2022/09/05 03:16:15;;;;;;;5.40;4.40;;;19.10;99.90;;;;;;5013431;28;20449;-87
2022/09/05 03:19:02;;;;;;;4.93;4.37;;;19.10;99.90;;;;;;5013260;28;20417;-86
2022/09/05 03:22:00;;;;;;;7.57;5.30;;;19.00;99.90;;;;;;5013249;28;20420;-86
2022/09/05 03:24:51;;;;;;;6.83;4.70;;;19.00;99.90;;;;;;5012841;28;20455;-86
2022/09/05 03:27:54;;;;;;;6.87;4.90;;;18.90;99.90;;;;;;5013270;28;20390;-87
2022/09/05 03:30:49;;;;;;;6.87;4.73;;;18.80;99.90;;;;;;5013956;28;20409;-87
2022/09/05 03:33:36;;;;;;;10.93;4.93;;;18.70;1.00;;;;;;5018588;28;20452;-86
2022/09/05 03:36:44;;;;;;;6.80;4.70;;;18.60;1.00;;;;;;5015327;28;20446;-87
2022/09/05 03:39:37;;;;;;;6.63;4.73;;;18.50;1.00;;;;;;5011857;28;20487;-87
2022/09/05 03:42:21;;;;;;;7.97;4.93;;;18.50;1.00;;;;;;5011715;28;20414;-86
2022/09/05 03:44:53;;;;;;;10.73;4.70;;;18.40;1.00;;;;;;5011757;28;20456;-86
2022/09/05 03:47:43;;;;;;;8.20;5.20;;;18.40;1.00;;;;;;5011942;28;20852;-86
2022/09/05 03:50:53;;;;;;;6.33;5.30;;;18.40;1.00;;;;;;5011647;28;20805;-86
2022/09/05 03:53:19;;;;;;;7.80;4.13;;;18.30;1.00;;;;;;5009546;28;20889;-86
2022/09/05 03:56:05;;;;;;;6.83;4.40;;;18.30;1.00;;;;;;5011743;28;20428;-87
2022/09/05 03:59:17;;;;;;;7.20;5.03;;;18.30;1.00;;;;;;5011715;28;20239;-86
2022/09/05 04:02:04;;;;;;;7.20;4.47;;;18.30;1.00;;;;;;5014218;28;20464;-87
2022/09/05 04:04:56;;;;;;;5.80;4.80;;;18.20;1.00;;;;;;5011536;28;20954;-86
2022/09/05 04:07:41;;;;;;;8.30;4.47;;;18.20;1.00;;;;;;5011971;28;20426;-87
2022/09/05 04:10:31;;;;;;;7.40;4.37;;;18.10;1.00;;;;;;5011705;28;20938;-86
2022/09/05 04:13:13;;;;;;;5.20;4.20;;;18.00;1.00;;;;;;5011670;28;20998;-86
2022/09/05 04:15:49;;;;;;;5.40;4.43;;;18.00;1.00;;;;;;5011545;28;20430;-87
2022/09/05 04:18:17;;;;;;;7.93;4.30;;;17.90;1.00;;;;;;5011883;28;20451;-86
2022/09/05 04:21:25;;;;;;;5.80;4.40;;;17.90;1.00;;;;;;5011719;28;20425;-87
2022/09/05 04:24:08;;;;;;;6.00;4.30;;;17.90;1.00;;;;;;4997967;28;21003;-86
2022/09/05 04:26:49;;;;;;;8.23;5.00;;;17.90;1.00;;;;;;4998420;28;20981;-87
2022/09/05 04:29:38;;;;;;;6.20;4.50;;;18.00;1.00;;;;;;5015685;28;20455;-86
2022/09/05 04:32:39;;;;;;;8.53;4.70;;;17.90;1.00;;;;;;5014568;28;20471;-86
2022/09/05 04:35:28;;;;;;;8.63;4.03;;;17.90;1.00;;;;;;5015992;28;20453;-86
2022/09/05 04:38:17;;;;;;;6.30;4.00;;;17.90;1.00;;;;;;5015085;28;20423;-87
2022/09/05 04:41:05;;;;;;;5.03;4.40;;;17.90;1.00;;;;;;5015124;28;20469;-87
2022/09/05 04:43:51;;;;;;;6.90;4.60;;;17.80;1.00;;;;;;5016215;28;20435;-87
2022/09/05 04:46:42;;;;;;;5.27;4.40;;;17.80;1.00;;;;;;5016003;28;20400;-87
2022/09/05 04:49:23;;;;;;;6.20;4.20;;;17.80;1.00;;;;;;5015052;28;20450;-86
2022/09/05 04:52:10;;;;;;;5.40;4.27;;;17.80;1.00;;;;;;5014493;28;20463;-87
2022/09/05 04:54:52;;;;;;;4.40;3.87;;;17.80;1.00;;;;;;5015803;28;20472;-86
2022/09/05 04:57:40;;;;;;;6.00;4.47;;;17.90;1.00;;;;;;5016324;28;20392;-86
2022/09/05 05:00:24;;;;;;;3.93;3.63;;;17.90;1.00;;;;;;5015633;28;20392;-87
2022/09/05 05:03:04;;;;;;;4.20;3.80;;;17.90;1.00;;;;;;5014229;28;20445;-86
2022/09/05 05:05:44;;;;;;;8.20;4.60;;;17.90;1.00;;;;;;5014269;28;20507;-87
2022/09/05 05:08:24;;;;;;;7.30;4.37;;;17.90;99.90;;;;;;5015866;28;20483;-87
2022/09/05 05:11:00;;;;;;;8.60;4.17;;;17.90;99.90;;;;;;5014505;28;20406;-87
2022/09/05 05:13:46;;;;;;;5.07;3.80;;;17.90;99.90;;;;;;5014121;28;20523;-87
2022/09/05 05:16:38;;;;;;;4.77;4.27;;;18.00;99.90;;;;;;5014184;28;20416;-86
2022/09/05 05:19:32;;;;;;;5.60;3.80;;;18.00;99.90;;;;;;5013899;28;20472;-87
2022/09/05 05:22:03;;;;;;;6.50;4.30;;;18.10;99.90;;;;;;5014354;28;20474;-86
2022/09/05 05:24:31;;;;;;;7.93;3.87;;;18.10;99.90;;;;;;5014162;28;20513;-87
2022/09/05 05:27:15;;;;;;;5.83;3.50;;;18.20;99.90;;;;;;5014092;28;20492;-88
2022/09/05 05:29:56;;;;;;;7.10;4.07;;;18.30;99.90;;;;;;5013859;28;20419;-86
2022/09/05 05:32:26;;;;;;;7.43;4.57;;;18.40;99.90;;;;;;5014719;28;20506;-87
2022/09/05 05:35:00;;;;;;;6.93;4.30;;;18.50;99.90;;;;;;5030486;28;20494;-87
2022/09/05 05:37:36;;;;;;;7.37;4.20;;;18.50;99.90;;;;;;5015187;28;20479;-86
2022/09/05 05:40:19;;;;;;;6.20;4.20;;;18.50;99.90;;;;;;5014070;28;20856;-86
2022/09/05 05:42:48;;;;;;;6.80;3.77;;;18.60;77.00;;;;;;5014120;28;20447;-86
2022/09/05 05:45:18;;;;;;;7.10;3.93;;;18.80;33.40;;;;;;5013216;28;20435;-87
2022/09/05 05:47:50;;;;;;;9.30;3.40;;;22.30;1.00;;;;;;5013353;28;20795;-85
2022/09/05 05:50:36;;;;;;;6.43;3.07;;;26.80;99.90;;;;;;5014402;28;20438;-86
2022/09/05 05:53:36;;;;;;;5.83;3.90;;;30.70;99.90;;;;;;5012983;28;20515;-86
2022/09/05 05:56:20;;;;;;;6.00;3.43;;;33.50;99.90;;;;;;5012826;28;20446;-86
2022/09/05 05:59:01;;;;;;;4.00;3.00;;;35.90;99.90;;;;;;5013041;28;20980;-85
2022/09/05 06:01:36;;;;;;;6.33;2.80;;;37.80;99.90;;;;;;5014001;28;20413;-86
2022/09/05 06:04:42;;;;;;;2.77;2.57;;;40.40;99.90;;;;;;5013099;28;20782;-87
2022/09/05 06:07:36;;;;;;;6.50;2.33;;;42.40;97.00;;;;;;4995179;28;20418;-86
2022/09/05 06:10:16;;;;;;;3.27;2.20;;;44.70;84.70;;;;;;5011758;28;20422;-86
2022/09/05 06:13:20;;;;;;;3.67;2.40;;;46.00;67.80;;;;;;5012285;28;20564;-86
2022/09/05 06:16:02;;;;;;;5.90;3.03;;;46.90;52.70;;;;;;5012721;28;20965;-86
2022/09/05 06:19:06;;;;;;;2.97;1.97;;;47.60;41.50;;;;;;5012379;28;20480;-87
2022/09/05 06:21:51;;;;;;;5.63;2.60;;;48.10;31.80;;;;;;5012496;28;20427;-86
2022/09/05 06:24:47;;;;;;;4.90;2.50;;;48.70;25.90;;;;;;5012204;28;20441;-87
2022/09/05 06:27:40;;;;;;;5.87;2.43;;;49.30;20.20;;;;;;5012234;28;20421;-86
2022/09/05 06:30:19;;;;;;;4.30;2.20;;;49.90;15.30;;;;;;5012322;28;20641;-87
2022/09/05 06:32:50;;;;;;;11.10;2.60;;;50.90;12.40;;;;;;5012143;28;20218;-87
2022/09/05 06:35:28;;;;;;;5.88;2.03;;;51.90;9.30;;;;;;5011930;28;20213;-87
2022/09/05 06:38:03;;;;;;;4.35;2.22;;;52.60;6.20;;;;;;5012050;28;20201;-88
2022/09/05 06:40:37;;;;;;;5.35;2.10;;;52.80;2.50;;;;;;5012554;28;20174;-87
2022/09/05 06:43:14;;;;;;;6.57;2.67;;;53.20;1.00;;;;;;5013612;28;20194;-87
2022/09/05 06:46:02;;;;;;;3.75;2.08;;;53.70;1.00;;;;;;5011385;28;20193;-88
2022/09/05 06:48:45;;;;;;;3.15;1.80;;;53.50;1.00;;;;;;5012085;28;20190;-86
2022/09/05 06:51:41;;;;;;;3.95;2.15;;;53.20;1.00;;;;;;5013096;28;20194;-87
2022/09/05 06:54:33;;;;;;;2.83;1.87;;;52.50;1.00;;;;;;5011862;28;20202;-87
2022/09/05 06:57:12;;;;;;;3.17;1.87;;;51.90;1.00;;;;;;5012301;28;20630;-87
2022/09/05 07:00:17;;;;;;;8.00;2.07;;;51.80;1.00;;;;;;5012177;28;20174;-87
2022/09/05 07:03:17;;;;;;;4.63;1.98;;;53.00;1.00;;;;;;5011552;28;20201;-86
2022/09/05 07:06:31;;;;;;;7.60;2.03;;;54.30;1.00;;;;;;5011908;28;20206;-87
2022/09/05 07:09:09;;;;;;;5.28;1.98;;;54.90;1.00;;;;;;5013146;28;20546;-87
2022/09/05 07:11:50;;;;;;;5.13;2.53;;;55.00;1.00;;;;;;5011649;28;20285;-86
2022/09/05 07:14:21;;;;;;;2.58;1.75;;;55.80;1.00;;;;;;5011726;28;20599;-87
2022/09/05 07:17:03;;;;;;;8.43;2.08;;;55.90;1.00;;;;;;5011902;28;20250;-88
2022/09/05 07:19:38;;;;;;;6.20;2.00;;;55.80;1.00;;;;;;5011781;28;20488;-87
2022/09/05 07:22:27;;;;;;;5.63;1.95;;;55.90;1.00;;;;;;5013083;28;20501;-86
2022/09/05 07:24:55;;;;;;;4.88;2.05;;;56.20;1.00;;;;;;5011413;28;20678;-89
2022/09/05 07:27:38;;;;;;;5.95;2.08;;;56.30;1.00;;;;;;5011391;28;20735;-85
2022/09/05 07:30:05;;;;;;;6.50;1.75;;;56.70;1.00;;;;;;5011621;28;20277;-87
2022/09/05 07:32:45;;;;;;;4.50;1.98;;;57.30;1.00;;;;;;5011266;28;20221;-87
2022/09/05 07:35:28;;;;;;;4.00;2.13;;;56.90;1.00;;;;;;5011273;28;20174;-86
2022/09/05 07:38:12;;;;;;;3.78;1.90;;;56.80;1.00;;;;;;5011138;28;20189;-87
2022/09/05 07:40:43;;;;;;;2.95;1.48;;;56.20;1.00;;;;;;5011993;28;20265;-87
2022/09/05 07:43:22;;;;;;;4.95;1.58;;;55.60;1.00;;;;;;5011465;28;20197;-85
2022/09/05 07:46:22;;;;;;;6.22;2.00;;;55.40;1.00;;;;;;5013147;28;20159;-85
2022/09/05 07:49:26;;;;;;;2.90;2.05;;;56.30;1.00;;;;;;5011890;28;20201;-85
2022/09/05 07:52:09;;;;;;;3.15;2.10;;;56.10;1.00;;;;;;5011745;28;20630;-84
2022/09/05 07:54:41;;;;;;;4.05;2.03;;;55.90;1.00;;;;;;5012023;28;20177;-84
2022/09/05 07:57:12;;;;;;;8.68;1.67;;;56.20;1.00;;;;;;5014110;28;20654;-84
2022/09/05 07:59:41;;;;;;;2.70;1.70;;;56.70;1.00;;;;;;5016185;28;20262;-85
2022/09/05 08:02:10;;;;;;;6.82;1.65;;;56.50;1.00;;;;;;5015352;28;20181;-83
2022/09/05 08:04:38;;;;;;;3.47;1.50;;;56.00;1.00;;;;;;5014971;28;20213;-85
2022/09/05 08:07:12;;;;;;;6.10;1.70;;;55.50;1.00;;;;;;5014901;28;20217;-85
2022/09/05 08:09:48;;;;;;;10.25;1.67;;;55.20;1.00;;;;;;5014991;28;20566;-84
2022/09/05 08:12:19;;;;;;;3.03;1.42;;;55.40;1.00;;;;;;5016134;28;20275;-84
2022/09/05 08:15:06;;;;;;;4.15;1.92;;;54.70;1.00;;;;;;5015279;28;20545;-85
2022/09/05 08:17:48;;;;;;;4.57;1.60;;;54.90;1.00;;;;;;5014642;28;20177;-84
2022/09/05 08:20:41;;;;;;;3.28;1.88;;;55.40;1.00;;;;;;5015973;28;20165;-84
2022/09/05 08:23:32;;;;;;;2.63;1.48;;;55.50;1.00;;;;;;5016302;28;20220;-84
2022/09/05 08:26:12;;;;;;;4.72;1.65;;;55.60;1.00;;;;;;5014492;28;20166;-84
2022/09/05 08:29:00;;;;;;;2.63;2.00;;;55.20;1.00;;;;;;5014601;28;20236;-84
2022/09/05 08:31:39;;;;;;;5.53;2.17;;;55.30;1.00;;;;;;5015979;28;20543;-84
2022/09/05 08:34:11;;;;;;;4.57;2.08;;;54.80;1.00;;;;;;5015749;28;20194;-83
2022/09/05 08:36:49;;;;;;;4.53;1.80;;;54.10;1.00;;;;;;5014329;28;20261;-87
2022/09/05 08:39:19;;;;;;;2.97;1.80;;;53.50;1.00;;;;;;5015752;28;20161;-86
2022/09/05 08:42:07;;;;;;;6.03;1.57;;;53.50;1.00;;;;;;5014292;28;20229;-85
2022/09/05 08:45:03;;;;;;;4.30;1.70;;;53.30;1.00;;;;;;5014547;28;20222;-86
2022/09/05 08:47:51;;;;;;;3.77;1.80;;;53.40;1.00;;;;;;5014304;28;20170;-86
2022/09/05 08:50:23;;;;;;;8.20;1.63;;;53.50;1.00;;;;;;5014060;28;20194;-87
2022/09/05 08:53:10;;;;;;;6.40;2.10;;;53.20;1.00;;;;;;5014237;28;20214;-86
2022/09/05 08:55:45;;;;;;;4.93;1.70;;;53.60;1.00;;;;;;5014049;28;20194;-86
2022/09/05 08:58:48;;;;;;;7.70;1.70;;;54.10;1.00;;;;;;5014057;28;20194;-86
2022/09/05 09:01:39;;;;;;;3.70;1.53;;;53.60;1.00;;;;;;5013892;28;20174;-86
2022/09/05 09:04:30;;;;;;;3.27;1.40;;;52.70;1.00;;;;;;5013827;28;20202;-86
2022/09/05 09:07:06;;;;;;;5.57;1.60;;;52.40;1.00;;;;;;5013481;28;20842;-86
2022/09/05 09:09:37;;;;;;;4.10;1.50;;;52.80;1.00;;;;;;5014697;28;20488;-86
2022/09/05 09:12:38;;;;;;;3.33;1.60;;;53.00;1.00;;;;;;5013374;28;20449;-86
2022/09/05 09:15:33;;;;;;;3.17;1.27;;;53.70;1.00;;;;;;5013809;28;20178;-86
2022/09/05 09:17:59;;;;;;;2.60;1.47;;;54.00;1.00;;;;;;5008852;28;20195;-86
2022/09/05 09:20:36;;;;;;;2.50;1.20;;;54.10;1.00;;;;;;5014925;28;20174;-85
2022/09/05 09:23:04;;;;;;;3.53;1.60;;;54.30;1.00;;;;;;5013665;28;20747;-85
2022/09/05 09:25:59;;;;;;;6.53;1.53;;;53.70;1.00;;;;;;5013853;28;20182;-85
2022/09/05 09:28:49;;;;;;;6.70;1.70;;;53.90;1.00;;;;;;5013797;28;20202;-86
2022/09/05 09:31:23;;;;;;;3.93;1.27;;;53.70;1.00;;;;;;5013450;28;20751;-85
2022/09/05 09:34:02;;;;;;;2.30;1.10;;;52.90;1.00;;;;;;5013291;28;20202;-85
2022/09/05 09:37:03;;;;;;;2.33;1.30;;;52.30;1.00;;;;;;5013287;28;20170;-85
2022/09/05 09:39:50;;;;;;;2.47;1.07;;;52.40;1.00;;;;;;5013705;28;20181;-84
2022/09/05 09:42:39;;;;;;;6.60;1.20;;;52.20;1.00;;;;;;5013143;28;20289;-84
2022/09/05 09:45:10;;;;;;;5.30;1.50;;;52.00;1.00;;;;;;5013412;28;20181;-85
2022/09/05 09:48:13;;;;;;;1.50;1.03;;;51.90;1.00;;;;;;5013305;28;20508;-85
2022/09/05 09:51:18;;;;;;;4.37;1.03;;;51.20;1.00;;;;;;5013349;28;20239;-84
2022/09/05 09:54:05;;;;;;;7.27;1.63;;;51.40;1.00;;;;;;5013557;28;20441;-86
2022/09/05 09:57:02;;;;;;;4.83;1.43;;;51.90;1.00;;;;;;5013137;28;20409;-85
2022/09/05 10:00:12;;;;;;;4.37;1.20;;;51.70;1.00;;;;;;5014131;28;20241;-85
2022/09/05 10:02:37;;;;;;;1.93;0.90;;;51.20;1.00;;;;;;5013009;28;20456;-84
2022/09/05 10:05:51;;;;;;;1.10;0.90;;;51.40;1.00;;;;;;5012680;28;20178;-85
2022/09/05 10:08:46;;;;;;;3.53;0.80;;;51.40;1.00;;;;;;5012738;28;20185;-84
2022/09/05 10:11:30;;;;;;;1.30;1.00;;;51.20;1.00;;;;;;5005492;28;21002;-85
2022/09/05 10:14:33;;;;;;;1.90;0.93;;;50.80;1.00;;;;;;5013175;28;20440;-85
2022/09/05 10:17:08;;;;;;;1.17;1.07;;;50.80;1.00;;;;;;5012633;28;20501;-84
2022/09/05 10:19:59;;;;;;;2.13;0.77;;;49.60;1.00;;;;;;5012989;28;21005;-85
2022/09/05 10:22:49;;;;;;;3.00;0.80;;;48.10;1.00;;;;;;5012911;28;20940;-84
2022/09/05 10:25:48;;;;;;;4.10;1.33;;;46.60;1.00;;;;;;5013235;28;20412;-84
2022/09/05 10:28:42;;;;;;;5.00;1.20;;;45.20;1.00;;;;;;5013312;28;20410;-86
2022/09/05 10:31:18;;;;;;;2.67;1.17;;;45.30;1.00;;;;;;5010456;28;20458;-86
2022/09/05 10:33:58;;;;;;;3.70;1.10;;;45.90;1.00;;;;;;5012479;28;20434;-85
2022/09/05 10:36:28;;;;;;;5.53;1.23;;;46.30;1.00;;;;;;5012347;28;20499;-85
2022/09/05 10:39:27;;;;;;;2.73;1.30;;;47.40;1.00;;;;;;5012529;28;20417;-85
2022/09/05 10:41:55;;;;;;;3.77;1.23;;;48.40;1.00;;;;;;5012430;28;20461;-84
2022/09/05 10:44:31;;;;;;;3.57;1.23;;;48.70;1.00;;;;;;5012234;28;20994;-85
2022/09/05 10:47:09;;;;;;;3.00;1.40;;;49.40;1.00;;;;;;5012658;28;20979;-85
2022/09/05 10:49:44;;;;;;;3.30;1.40;;;50.20;1.00;;;;;;5012280;28;20433;-85
2022/09/05 10:52:18;;;;;;;2.73;1.10;;;50.90;1.00;;;;;;5013346;28;20500;-85
2022/09/05 10:54:47;;;;;;;1.77;1.10;;;50.50;1.00;;;;;;5012071;28;20410;-85
2022/09/05 10:57:13;;;;;;;3.00;1.10;;;50.60;1.00;;;;;;5013409;28;20428;-85
2022/09/05 11:00:06;;;;;;;4.10;1.20;;;51.00;1.00;;;;;;5011927;28;20170;-85
2022/09/05 11:02:40;;;;;;;2.37;1.23;;;50.50;1.00;;;;;;5012035;28;20198;-85
2022/09/05 11:05:20;;;;;;;1.97;1.10;;;49.20;1.00;;;;;;5012072;28;20414;-85
2022/09/05 11:08:08;;;;;;;1.70;1.10;;;49.10;1.00;;;;;;5012002;28;20524;-86
2022/09/05 11:10:55;;;;;;;2.93;1.20;;;49.20;1.00;;;;;;5012949;28;20488;-84
2022/09/05 11:13:46;;;;;;;2.10;1.00;;;49.00;1.00;;;;;;5011391;28;20481;-85
2022/09/05 11:16:12;;;;;;;2.87;1.17;;;48.90;1.00;;;;;;5011269;28;20412;-85
2022/09/05 11:18:56;;;;;;;6.27;1.17;;;49.40;1.00;;;;;;5011509;28;20414;-85
2022/09/05 11:21:43;;;;;;;3.03;1.20;;;49.20;1.00;;;;;;5011424;28;20650;-85
2022/09/05 11:24:30;;;;;;;1.90;1.10;;;49.00;1.00;;;;;;5011290;28;20437;-83
2022/09/05 11:27:04;;;;;;;1.43;1.00;;;48.40;1.00;;;;;;5012737;28;20422;-87
2022/09/05 11:29:46;;;;;;;2.07;1.00;;;48.10;1.00;;;;;;5014955;28;20392;-85
2022/09/05 11:32:45;;;;;;;1.80;1.10;;;48.40;1.00;;;;;;5016630;28;20830;-85
2022/09/05 11:35:16;;;;;;;1.63;0.90;;;49.10;1.00;;;;;;5016658;28;20560;-85
2022/09/05 11:37:59;;;;;;;4.43;1.53;;;49.40;1.00;;;;;;5018350;28;20402;-85
2022/09/05 11:40:45;;;;;;;1.50;1.10;;;49.10;1.00;;;;;;5017318;28;20408;-84
2022/09/05 11:43:23;;;;;;;2.13;0.97;;;48.30;1.00;;;;;;5022554;28;20864;-84
2022/09/05 11:45:54;;;;;;;1.13;1.03;;;47.90;1.00;;;;;;5017493;28;20504;-85
2022/09/05 11:48:23;;;;;;;1.60;1.20;;;48.00;1.00;;;;;;5018112;28;20798;-85
2022/09/05 11:51:19;;;;;;;5.00;1.30;;;48.40;1.00;;;;;;5016162;28;20491;-85
2022/09/05 11:54:03;;;;;;;6.80;1.20;;;48.70;1.00;;;;;;5017591;28;20433;-84
2022/09/05 11:56:56;;;;;;;2.53;1.20;;;48.70;1.00;;;;;;5016813;28;20873;-85
2022/09/05 11:59:59;;;;;;;1.53;1.00;;;48.50;1.00;;;;;;5017436;28;20517;-86
2022/09/05 12:02:53;;;;;;;1.50;1.00;;;48.60;1.00;;;;;;5016548;28;20417;-85
2022/09/05 12:05:30;;;;;;;1.53;1.07;;;48.90;1.00;;;;;;5017321;28;20911;-85
2022/09/05 12:08:05;;;;;;;2.20;1.00;;;49.10;1.00;;;;;;5016562;28;20417;-85
2022/09/05 12:10:46;;;;;;;4.77;1.20;;;49.20;1.00;;;;;;5017252;28;20397;-85
2022/09/05 12:13:39;;;;;;;2.03;1.20;;;49.40;1.00;;;;;;5015770;28;20469;-85
2022/09/05 12:16:38;;;;;;;1.40;1.10;;;49.10;1.00;;;;;;5015782;28;20416;-85
2022/09/05 12:19:34;;;;;;;2.43;1.20;;;48.30;1.00;;;;;;5017102;28;20448;-85
2022/09/05 12:22:45;;;;;;;3.23;1.40;;;47.50;1.00;;;;;;5016939;28;20522;-85
2022/09/05 12:25:10;;;;;;;2.67;1.13;;;47.00;1.00;;;;;;5014248;28;20420;-85
2022/09/05 12:27:37;;;;;;;1.87;1.30;;;47.30;1.00;;;;;;5015228;28;20808;-85
2022/09/05 12:30:10;;;;;;;2.07;1.00;;;47.70;1.00;;;;;;5016111;28;20178;-85
2022/09/05 12:32:54;;;;;;;1.43;0.90;;;48.00;1.00;;;;;;5016341;28;20468;-85
2022/09/05 12:35:36;;;;;;;1.97;1.10;;;48.30;1.00;;;;;;5015503;28;20982;-85
2022/09/05 12:38:22;;;;;;;1.13;0.87;;;47.80;1.00;;;;;;5017330;28;20474;-84
2022/09/05 12:41:20;;;;;;;5.20;1.17;;;46.20;1.00;;;;;;5015646;28;20496;-83
2022/09/05 12:44:21;;;;;;;3.73;1.00;;;45.00;1.00;;;;;;5016421;28;20813;-85
2022/09/05 12:47:07;;;;;;;2.40;1.20;;;44.70;1.00;;;;;;5016740;28;20397;-84
2022/09/05 12:49:36;;;;;;;2.70;1.20;;;45.40;1.00;;;;;;5015322;28;20890;-84
2022/09/05 12:52:34;;;;;;;1.70;1.17;;;45.80;1.00;;;;;;5016849;28;20464;-86
2022/09/05 12:55:24;;;;;;;1.90;1.30;;;46.40;1.00;;;;;;5014558;28;20417;-85
2022/09/05 12:57:55;;;;;;;5.10;1.20;;;46.70;1.00;;;;;;5015211;28;20807;-85
2022/09/05 13:00:22;;;;;;;4.10;1.10;;;46.80;1.00;;;;;;5015029;28;20909;-84
2022/09/05 13:02:59;;;;;;;2.93;1.00;;;46.20;1.00;;;;;;5016787;28;20441;-86
2022/09/05 13:05:44;;;;;;;2.90;1.23;;;45.20;1.00;;;;;;5015791;28;20412;-85
2022/09/05 13:08:14;;;;;;;5.63;1.50;;;44.10;1.00;;;;;;5017846;28;20406;-84
2022/09/05 13:10:40;;;;;;;2.20;1.10;;;43.20;1.00;;;;;;5016760;28;20410;-84
2022/09/05 13:13:07;;;;;;;1.23;0.90;;;42.10;1.00;;;;;;5017563;28;20492;-84
2022/09/05 13:15:37;;;;;;;2.80;0.97;;;41.40;1.00;;;;;;5016797;28;20179;-86
2022/09/05 13:18:15;;;;;;;3.50;1.10;;;40.60;1.00;;;;;;5017814;28;20453;-84
2022/09/05 13:21:06;;;;;;;2.37;0.97;;;39.90;1.00;;;;;;5018177;28;20412;-84
2022/09/05 13:24:10;;;;;;;3.80;1.17;;;39.70;1.00;;;;;;5016989;28;20444;-85
2022/09/05 13:27:06;;;;;;;3.50;1.17;;;39.80;1.00;;;;;;5017601;28;20425;-84
2022/09/05 13:29:54;;;;;;;2.10;1.00;;;39.80;1.00;;;;;;5016957;28;20512;-84
2022/09/05 13:32:32;;;;;;;3.23;0.97;;;40.00;1.00;;;;;;5016476;28;20500;-84
2022/09/05 13:35:14;;;;;;;5.47;1.30;;;40.10;1.00;;;;;;5015974;28;20797;-84
2022/09/05 13:38:26;;;;;;;3.47;1.20;;;40.40;1.00;;;;;;5017249;28;20417;-84
2022/09/05 13:40:58;;;;;;;1.80;1.17;;;40.70;1.00;;;;;;5014780;28;20434;-84
2022/09/05 13:43:37;;;;;;;3.50;1.00;;;40.70;1.00;;;;;;4998915;28;20434;-84
2022/09/05 13:46:15;;;;;;;2.40;1.33;;;40.70;1.00;;;;;;5008600;28;20477;-84
2022/09/05 13:48:53;;;;;;;1.87;1.10;;;40.60;1.00;;;;;;5015016;28;20497;-85
2022/09/05 13:51:30;;;;;;;2.80;1.43;;;40.60;1.00;;;;;;5012541;28;20519;-86
2022/09/05 13:54:08;;;;;;;2.60;1.10;;;40.50;1.00;;;;;;5011789;28;20492;-86
2022/09/05 13:56:45;;;;;;;5.10;1.17;;;40.60;1.00;;;;;;5012472;28;20413;-86
2022/09/05 13:59:13;;;;;;;2.30;1.00;;;40.70;1.00;;;;;;5013522;28;20759;-86
2022/09/05 14:01:57;;;;;;;2.13;1.13;;;40.70;1.00;;;;;;5012144;28;20422;-85
2022/09/05 14:04:48;;;;;;;2.07;1.03;;;40.90;1.00;;;;;;5013631;28;20430;-86
2022/09/05 14:07:43;;;;;;;1.73;1.10;;;40.80;1.00;;;;;;5012053;28;20512;-85
2022/09/05 14:10:24;;;;;;;3.73;1.30;;;40.60;1.00;;;;;;5012499;28;20430;-86
2022/09/05 14:13:00;;;;;;;1.67;1.20;;;40.40;1.00;;;;;;5013582;28;20468;-85
2022/09/05 14:15:47;;;;;;;1.90;1.47;;;40.20;1.00;;;;;;5013426;28;20434;-86
2022/09/05 14:18:23;;;;;;;5.63;1.60;;;40.10;1.00;;;;;;5012266;28;20421;-86
2022/09/05 14:21:15;;;;;;;4.77;1.10;;;39.90;1.00;;;;;;5013508;28;20406;-86
2022/09/05 14:24:12;;;;;;;5.57;1.13;;;39.80;1.00;;;;;;5010746;28;20449;-85